createdAt,value
2018-03-11T00:01:01.245Z,56.40
2018-03-11T00:03:30.405Z,57.10
2018-03-11T00:05:59.948Z,56.55
2018-03-11T00:08:29.045Z,57.72
2018-03-11T00:10:57.881Z,62.17
2018-03-11T00:13:26.810Z,61.30
2018-03-11T00:15:55.802Z,62.75
2018-03-11T00:18:25.707Z,64.82
2018-03-11T00:20:55.548Z,61.15
2018-03-11T00:23:24.613Z,65.53
2018-03-11T00:25:53.545Z,63.80
2018-03-11T00:28:22.387Z,65.30
2018-03-11T00:30:51.301Z,68.78
2018-03-11T00:33:20.172Z,70.28
2018-03-11T00:35:49.775Z,67.45
2018-03-11T00:38:19.363Z,73.00
2018-03-11T00:40:48.117Z,84.50
2018-03-11T00:43:17.276Z,70.97
2018-03-11T00:45:46.867Z,86.90
2018-03-11T00:48:16.536Z,101.75
2018-03-11T00:50:45.407Z,108.43
2018-03-11T00:53:14.385Z,107.85
2018-03-11T00:55:43.547Z,93.57
2018-03-11T00:58:13.103Z,82.50
2018-03-11T01:00:42.768Z,89.60
2018-03-11T01:03:11.660Z,85.62
2018-03-11T01:05:41.926Z,84.47
2018-03-11T01:08:10.765Z,86.30
2018-03-11T01:10:40.017Z,83.12
2018-03-11T01:13:08.869Z,85.87
2018-03-11T01:15:38.458Z,78.95
2018-03-11T01:18:07.464Z,67.43
2018-03-11T01:20:37.071Z,66.68
2018-03-11T01:23:05.988Z,63.53
2018-03-11T01:25:34.816Z,68.10
2018-03-11T01:28:03.926Z,62.85
2018-03-11T01:30:32.702Z,61.10
2018-03-11T01:33:01.730Z,62.42
2018-03-11T01:35:30.548Z,59.40
2018-03-11T01:37:59.392Z,57.35
2018-03-11T01:40:28.167Z,60.70
2018-03-11T01:42:57.289Z,57.62
2018-03-11T01:45:26.874Z,59.83
2018-03-11T01:47:55.698Z,65.30
2018-03-11T01:50:25.253Z,64.32
2018-03-11T01:53:07.009Z,62.15
2018-03-11T01:55:36.039Z,61.53
2018-03-11T01:58:05.147Z,59.83
2018-03-11T02:00:33.911Z,62.47
2018-03-11T02:03:03.596Z,63.13
2018-03-11T02:05:32.402Z,69.80
2018-03-11T02:08:01.168Z,70.80
2018-03-11T02:10:30.071Z,71.32
2018-03-11T02:12:59.092Z,71.55
2018-03-11T02:15:28.132Z,74.03
2018-03-11T02:17:57.693Z,71.50
2018-03-11T02:20:27.516Z,71.30
2018-03-11T02:22:56.309Z,70.62
2018-03-11T02:25:26.164Z,59.65
2018-03-11T02:27:54.948Z,59.67
2018-03-11T02:30:24.709Z,58.35
2018-03-11T02:32:53.556Z,61.90
2018-03-11T02:35:23.193Z,64.65
2018-03-11T02:37:52.189Z,63.22
2018-03-11T02:40:21.207Z,60.78
2018-03-11T02:42:50.014Z,59.97
2018-03-11T02:45:19.784Z,60.70
2018-03-11T02:47:49.348Z,59.08
2018-03-11T02:50:19.026Z,58.92
2018-03-11T02:52:47.856Z,57.92
2018-03-11T02:55:16.840Z,58.33
2018-03-11T02:57:46.604Z,57.95
2018-03-11T03:00:15.739Z,59.60
2018-03-11T03:02:45.283Z,58.33
2018-03-11T03:05:14.124Z,59.45
2018-03-11T03:07:43.858Z,57.20
2018-03-11T03:10:12.940Z,59.67
2018-03-11T03:12:42.499Z,54.97
2018-03-11T03:15:11.428Z,52.20
2018-03-11T03:17:40.241Z,53.38
2018-03-11T03:20:09.251Z,53.35
2018-03-11T03:22:38.273Z,53.38
2018-03-11T03:25:07.111Z,53.33
2018-03-11T03:27:37.010Z,56.97
2018-03-11T03:30:05.984Z,55.22
2018-03-11T03:32:34.773Z,51.20
2018-03-11T03:35:04.035Z,45.45
2018-03-11T03:37:32.861Z,43.40
2018-03-11T03:40:02.505Z,40.67
2018-03-11T03:42:31.324Z,41.15
2018-03-11T03:45:00.120Z,39.95
2018-03-11T03:47:28.950Z,40.45
2018-03-11T03:49:58.043Z,39.22
2018-03-11T03:52:27.681Z,42.55
2018-03-11T03:54:57.328Z,48.00
2018-03-11T03:57:26.942Z,49.63
2018-03-11T03:59:55.872Z,47.05
2018-03-11T04:02:25.446Z,46.15
2018-03-11T04:04:54.379Z,44.00
2018-03-11T04:07:24.172Z,43.58
2018-03-11T04:09:53.777Z,41.35
2018-03-11T04:12:22.580Z,38.55
2018-03-11T04:14:51.572Z,40.47
2018-03-11T04:17:21.250Z,42.38
2018-03-11T04:19:50.092Z,42.22
2018-03-11T04:22:19.645Z,42.80
2018-03-11T04:24:48.531Z,42.83
2018-03-11T04:27:17.337Z,42.60
2018-03-11T04:29:46.989Z,42.75
2018-03-11T04:32:15.863Z,45.50
2018-03-11T04:34:45.465Z,46.22
2018-03-11T04:37:15.281Z,42.05
2018-03-11T04:39:44.245Z,42.65
2018-03-11T04:42:13.168Z,42.50
2018-03-11T04:44:42.037Z,42.10
2018-03-11T04:47:10.876Z,41.15
2018-03-11T04:49:40.056Z,44.95
2018-03-11T04:52:08.940Z,41.37
2018-03-11T04:54:38.036Z,43.05
2018-03-11T04:57:07.087Z,43.83
2018-03-11T04:59:35.945Z,45.30
2018-03-11T05:02:04.907Z,42.53
2018-03-11T05:04:33.788Z,44.17
2018-03-11T05:07:02.931Z,41.03
2018-03-11T05:09:31.866Z,42.30
2018-03-11T05:12:00.667Z,42.08
2018-03-11T05:14:30.421Z,40.05
2018-03-11T05:16:59.672Z,41.15
2018-03-11T05:19:28.784Z,42.00
2018-03-11T05:21:58.393Z,45.53
2018-03-11T05:24:27.476Z,46.97
2018-03-11T05:26:56.384Z,41.60
2018-03-11T05:29:25.205Z,40.15
2018-03-11T05:31:54.070Z,41.60
2018-03-11T05:34:22.888Z,42.40
2018-03-11T05:36:51.760Z,44.33
2018-03-11T05:39:20.825Z,45.05
2018-03-11T05:41:49.871Z,49.70
2018-03-11T05:44:18.722Z,47.75
2018-03-11T05:46:47.660Z,49.55
2018-03-11T05:49:16.563Z,41.22
2018-03-11T05:51:46.234Z,36.10
2018-03-11T05:54:15.136Z,38.10
2018-03-11T05:56:44.236Z,34.13
2018-03-11T05:59:13.076Z,34.50
2018-03-11T06:01:42.704Z,34.53
2018-03-11T06:04:11.803Z,34.30
2018-03-11T06:06:40.655Z,35.80
2018-03-11T06:09:09.495Z,35.80
2018-03-11T06:11:38.436Z,35.20
2018-03-11T06:14:07.644Z,40.97
2018-03-11T06:16:37.564Z,37.63
2018-03-11T06:19:07.171Z,33.03
2018-03-11T06:21:36.008Z,32.57
2018-03-11T06:24:04.959Z,31.17
2018-03-11T06:26:34.239Z,30.00
2018-03-11T06:29:03.892Z,29.30
2018-03-11T06:31:32.760Z,28.83
2018-03-11T06:34:01.609Z,29.27
2018-03-11T06:36:32.555Z,31.10
2018-03-11T06:39:03.091Z,32.67
2018-03-11T06:41:32.260Z,32.07
2018-03-11T06:44:01.861Z,33.30
2018-03-11T06:46:30.712Z,31.17
2018-03-11T06:48:59.619Z,37.20
2018-03-11T06:51:28.448Z,34.00
2018-03-11T06:53:57.363Z,31.93
2018-03-11T06:56:26.990Z,30.37
2018-03-11T06:58:56.785Z,32.67
2018-03-11T07:01:26.626Z,30.63
2018-03-11T07:03:55.518Z,28.47
2018-03-11T07:06:24.420Z,28.97
2018-03-11T07:08:53.280Z,30.87
2018-03-11T07:11:23.201Z,33.57
2018-03-11T07:13:52.249Z,30.03
2018-03-11T07:16:22.036Z,29.60
2018-03-11T07:18:51.839Z,28.77
2018-03-11T07:21:21.089Z,28.23
2018-03-11T07:23:49.867Z,28.60
2018-03-11T07:26:19.096Z,29.00
2018-03-11T07:28:48.905Z,28.17
2018-03-11T07:31:18.539Z,26.17
2018-03-11T07:33:47.383Z,26.67
2018-03-11T07:36:16.585Z,27.33
2018-03-11T07:38:46.223Z,26.63
2018-03-11T07:41:15.768Z,25.40
2018-03-11T07:43:44.738Z,32.77
2018-03-11T07:46:13.504Z,30.30
2018-03-11T07:48:43.114Z,27.80
2018-03-11T07:51:13.016Z,29.50
2018-03-11T07:53:41.915Z,32.63
2018-03-11T07:56:11.553Z,30.63
2018-03-11T07:58:40.660Z,30.17
2018-03-11T08:01:10.364Z,30.03
2018-03-11T08:03:39.589Z,30.57
2018-03-11T08:06:08.423Z,28.27
2018-03-11T08:08:38.319Z,29.53
2018-03-11T08:11:08.140Z,30.60
2018-03-11T08:13:37.815Z,26.87
2018-03-11T08:16:06.889Z,28.77
2018-03-11T08:18:37.406Z,27.93
2018-03-11T08:21:06.345Z,25.93
2018-03-11T08:23:35.175Z,28.73
2018-03-11T08:26:04.384Z,30.70
2018-03-11T08:28:33.260Z,30.90
2018-03-11T08:31:02.313Z,31.63
2018-03-11T08:33:31.950Z,24.10
2018-03-11T08:36:01.204Z,26.43
2018-03-11T08:38:30.039Z,22.90
2018-03-11T08:40:59.800Z,25.57
2018-03-11T08:43:29.548Z,26.53
2018-03-11T08:45:58.496Z,26.73
2018-03-11T08:48:27.450Z,26.13
2018-03-11T08:50:56.398Z,25.60
2018-03-11T08:53:25.247Z,30.70
2018-03-11T08:55:54.040Z,31.27
2018-03-11T08:58:22.881Z,26.37
2018-03-11T09:00:51.719Z,27.70
2018-03-11T09:03:20.636Z,29.37
2018-03-11T09:05:49.779Z,32.27
2018-03-11T09:08:19.369Z,28.37
2018-03-11T09:10:49.022Z,27.33
2018-03-11T09:13:18.899Z,26.03
2018-03-11T09:15:48.593Z,27.40
2018-03-11T09:18:17.811Z,27.57
2018-03-11T09:20:46.980Z,28.87
2018-03-11T09:23:15.886Z,26.70
2018-03-11T09:25:45.574Z,25.87
2018-03-11T09:28:14.537Z,19.17
2018-03-11T09:30:43.533Z,22.00
2018-03-11T09:33:12.617Z,22.33
2018-03-11T09:35:41.624Z,23.20
2018-03-11T09:38:10.485Z,22.13
2018-03-11T09:40:40.201Z,19.33
2018-03-11T09:43:09.055Z,17.50
2018-03-11T09:45:38.190Z,18.47
2018-03-11T09:48:07.086Z,20.57
2018-03-11T09:50:36.109Z,17.50
2018-03-11T09:53:05.061Z,19.97
2018-03-11T09:55:34.858Z,21.60
2018-03-11T09:58:04.987Z,21.87
2018-03-11T10:00:33.860Z,21.17
2018-03-11T10:03:03.526Z,22.23
2018-03-11T10:05:32.447Z,22.10
2018-03-11T10:08:02.085Z,23.90
2018-03-11T10:10:31.737Z,24.50
2018-03-11T10:13:00.953Z,23.37
2018-03-11T10:15:29.824Z,24.60
2018-03-11T10:17:58.703Z,24.33
2018-03-11T10:20:27.753Z,25.57
2018-03-11T10:22:56.607Z,25.60
2018-03-11T10:25:25.517Z,31.27
2018-03-11T10:27:55.193Z,26.83
2018-03-11T10:30:24.110Z,32.50
2018-03-11T10:32:52.980Z,28.83
2018-03-11T10:35:22.672Z,30.77
2018-03-11T10:37:51.736Z,32.23
2018-03-11T10:40:21.755Z,37.53
2018-03-11T10:42:51.555Z,54.63
2018-03-11T10:45:20.435Z,42.70
2018-03-11T10:47:50.165Z,33.70
2018-03-11T10:50:19.241Z,35.10
2018-03-11T10:52:48.873Z,43.60
2018-03-11T10:55:18.612Z,40.23
2018-03-11T10:57:47.808Z,34.03
2018-03-11T11:00:16.703Z,41.47
2018-03-11T11:02:45.597Z,42.83
2018-03-11T11:05:14.455Z,43.03
2018-03-11T11:07:44.480Z,36.83
2018-03-11T11:10:14.081Z,37.63
2018-03-11T11:12:42.923Z,41.23
2018-03-11T11:15:11.756Z,38.97
2018-03-11T11:17:41.642Z,30.67
2018-03-11T11:20:10.477Z,31.90
2018-03-11T11:22:40.452Z,28.43
2018-03-11T11:25:09.322Z,31.43
2018-03-11T11:27:38.545Z,31.17
2018-03-11T11:30:07.392Z,29.63
2018-03-11T11:32:36.450Z,28.07
2018-03-11T11:35:05.467Z,25.90
2018-03-11T11:37:34.365Z,24.93
2018-03-11T11:40:03.256Z,28.50
2018-03-11T11:42:32.144Z,25.37
2018-03-11T11:45:01.213Z,24.47
2018-03-11T11:47:30.060Z,23.60
2018-03-11T11:49:58.888Z,26.60
2018-03-11T11:52:27.982Z,32.30
2018-03-11T11:54:57.113Z,27.00
2018-03-11T11:57:26.239Z,22.67
2018-03-11T11:59:55.374Z,20.33
2018-03-11T12:02:24.316Z,21.93
2018-03-11T12:04:53.346Z,34.93
2018-03-11T12:07:22.341Z,25.10
2018-03-11T12:09:51.961Z,20.43
2018-03-11T12:12:21.571Z,21.17
2018-03-11T12:14:51.186Z,18.80
2018-03-11T12:17:20.044Z,20.80
2018-03-11T12:19:49.670Z,22.90
2018-03-11T12:22:18.833Z,20.40
2018-03-11T12:24:47.993Z,17.37
2018-03-11T12:27:17.731Z,16.90
2018-03-11T12:29:47.419Z,14.40
2018-03-11T12:32:16.261Z,16.07
2018-03-11T12:34:45.771Z,15.27
2018-03-11T12:37:15.392Z,12.13
2018-03-11T12:39:44.999Z,12.17
2018-03-11T12:42:13.770Z,12.10
2018-03-11T12:44:42.972Z,12.07
2018-03-11T12:47:12.074Z,12.07
2018-03-11T12:49:41.687Z,16.37
2018-03-11T12:52:10.471Z,15.17
2018-03-11T12:54:40.205Z,11.03
2018-03-11T12:57:09.469Z,13.70
2018-03-11T12:59:38.407Z,16.47
2018-03-11T13:02:07.248Z,14.70
2018-03-11T13:04:36.136Z,11.43
2018-03-11T13:07:04.930Z,11.60
2018-03-11T13:09:34.627Z,12.27
2018-03-11T13:12:03.453Z,14.27
2018-03-11T13:14:33.180Z,12.17
2018-03-11T13:17:01.951Z,13.93
2018-03-11T13:19:30.942Z,13.47
2018-03-11T13:22:00.656Z,15.73
2018-03-11T13:24:29.655Z,13.23
2018-03-11T13:26:58.631Z,13.87
2018-03-11T13:29:27.687Z,11.43
2018-03-11T13:32:08.044Z,12.63
2018-03-11T13:34:37.619Z,15.23
2018-03-11T13:37:06.432Z,15.73
2018-03-11T13:39:47.059Z,12.37
2018-03-11T13:42:16.058Z,14.67
2018-03-11T13:44:44.986Z,13.10
2018-03-11T13:47:14.640Z,12.33
2018-03-11T13:49:44.240Z,14.70
2018-03-11T13:52:25.422Z,14.87
2018-03-11T13:54:54.201Z,15.10
2018-03-11T14:00:34.158Z,10.47
2018-03-11T14:03:02.970Z,11.10
2018-03-11T14:05:32.588Z,15.67
2018-03-11T14:08:01.477Z,18.03
2018-03-11T14:10:30.450Z,18.00
2018-03-11T14:12:59.448Z,13.40
2018-03-11T14:15:28.348Z,11.50
2018-03-11T14:17:57.935Z,31.13
2018-03-11T14:20:27.709Z,15.43
2018-03-11T14:22:56.580Z,16.33
2018-03-11T14:25:25.415Z,42.60
2018-03-11T14:27:55.927Z,19.80
2018-03-11T14:30:25.439Z,17.90
2018-03-11T14:32:54.569Z,14.87
2018-03-11T14:35:23.750Z,13.17
2018-03-11T14:37:52.761Z,14.97
2018-03-11T14:40:21.652Z,12.20
2018-03-11T14:42:50.593Z,12.37
2018-03-11T14:45:19.497Z,10.33
2018-03-11T14:47:48.676Z,10.97
2018-03-11T14:50:17.752Z,10.57
2018-03-11T14:52:46.683Z,11.90
2018-03-11T14:55:16.554Z,12.33
2018-03-11T14:57:45.464Z,12.13
2018-03-11T15:00:14.503Z,12.20
2018-03-11T15:02:44.105Z,12.10
2018-03-11T15:05:12.991Z,12.70
2018-03-11T15:07:41.922Z,11.40
2018-03-11T15:10:10.773Z,12.53
2018-03-11T15:12:39.635Z,12.37
2018-03-11T15:15:08.544Z,12.87
2018-03-11T15:17:37.435Z,14.00
2018-03-11T15:20:06.441Z,13.33
2018-03-11T15:22:35.327Z,12.73
2018-03-11T15:25:04.387Z,14.70
2018-03-11T15:27:33.320Z,13.60
2018-03-11T15:30:02.185Z,15.13
2018-03-11T15:32:31.483Z,13.93
2018-03-11T15:35:00.705Z,13.93
2018-03-11T15:37:29.707Z,14.07
2018-03-11T15:39:58.588Z,14.90
2018-03-11T15:42:27.414Z,15.97
2018-03-11T15:44:56.311Z,17.97
2018-03-11T15:47:25.478Z,21.40
2018-03-11T15:49:55.293Z,24.00
2018-03-11T15:52:25.040Z,22.17
2018-03-11T15:54:53.970Z,22.47
2018-03-11T15:57:23.705Z,19.57
2018-03-11T15:59:52.916Z,29.77
2018-03-11T16:02:21.930Z,20.33
2018-03-11T16:04:50.772Z,23.27
2018-03-11T16:07:19.972Z,23.40
2018-03-11T16:09:48.911Z,26.10
2018-03-11T16:12:17.785Z,23.23
2018-03-11T16:14:46.881Z,22.30
2018-03-11T16:17:15.827Z,21.70
2018-03-11T16:19:45.666Z,23.10
2018-03-11T16:22:14.532Z,24.00
2018-03-11T16:24:43.661Z,34.60
2018-03-11T16:27:12.501Z,32.63
2018-03-11T16:29:41.808Z,31.30
2018-03-11T16:32:10.674Z,44.40
2018-03-11T16:34:39.800Z,69.97
2018-03-11T16:37:08.736Z,54.00
2018-03-11T16:39:37.918Z,46.10
2018-03-11T16:42:07.079Z,56.90
2018-03-11T16:44:36.200Z,62.10
2018-03-11T16:47:05.114Z,61.03
2018-03-11T16:49:33.973Z,67.10
2018-03-11T16:52:02.841Z,73.67
2018-03-11T16:54:31.790Z,84.30
2018-03-11T16:57:00.668Z,95.83
2018-03-11T16:59:30.416Z,92.07
2018-03-11T17:01:59.655Z,125.57
2018-03-11T17:04:28.511Z,90.77
2018-03-11T17:06:57.453Z,87.50
2018-03-11T17:09:27.277Z,92.90
2018-03-11T17:11:56.915Z,71.60
2018-03-11T17:14:25.918Z,61.07
2018-03-11T17:16:54.875Z,62.47
2018-03-11T17:19:24.025Z,60.20
2018-03-11T17:21:54.011Z,66.53
2018-03-11T17:24:23.445Z,61.93
2018-03-11T17:26:53.130Z,60.20
2018-03-11T17:29:22.721Z,60.47
2018-03-11T17:31:52.040Z,58.43
2018-03-11T17:47:21.343Z,31.23
2018-03-11T17:49:50.877Z,28.20
2018-03-11T17:52:20.362Z,27.47
2018-03-11T17:54:50.104Z,30.00
2018-03-11T17:57:20.235Z,32.83
2018-03-11T17:59:49.308Z,31.73
2018-03-11T18:02:18.308Z,31.20
2018-03-11T18:04:47.512Z,30.50
2018-03-11T18:07:17.467Z,31.03
2018-03-11T18:09:46.300Z,31.57
2018-03-11T18:12:15.536Z,43.87
2018-03-11T18:14:44.423Z,31.90
2018-03-11T18:17:13.450Z,33.03
2018-03-11T18:19:43.151Z,33.73
2018-03-11T18:22:11.983Z,35.40
2018-03-11T18:24:41.813Z,34.10
2018-03-11T18:27:11.420Z,36.67
2018-03-11T18:29:41.273Z,38.87
2018-03-11T18:32:10.227Z,37.87
2018-03-11T18:34:39.499Z,40.93
2018-03-11T18:37:09.322Z,41.67
2018-03-11T18:39:38.157Z,43.60
2018-03-11T18:42:08.060Z,54.50
2018-03-11T18:44:36.956Z,51.93
2018-03-11T18:47:05.842Z,48.10
2018-03-11T18:49:34.650Z,39.20
2018-03-11T18:52:03.688Z,46.27
2018-03-11T18:54:32.887Z,47.03
2018-03-11T18:57:02.202Z,38.90
2018-03-11T18:59:33.551Z,35.33
2018-03-11T19:02:03.389Z,36.07
2018-03-11T19:04:33.091Z,36.97
2018-03-11T19:07:02.333Z,35.83
2018-03-11T19:09:31.814Z,34.10
2018-03-11T19:12:01.218Z,35.03
2018-03-11T19:14:30.434Z,36.93
2018-03-11T19:16:59.891Z,38.20
2018-03-11T19:19:29.914Z,37.90
2018-03-11T19:21:59.118Z,38.40
2018-03-11T19:24:28.097Z,39.63
2018-03-11T19:26:57.168Z,37.67
2018-03-11T19:29:26.906Z,38.93
2018-03-11T19:31:55.942Z,38.83
2018-03-11T19:34:25.072Z,37.17
2018-03-11T19:36:54.369Z,38.53
2018-03-11T19:39:23.453Z,39.37
2018-03-11T19:41:53.433Z,39.40
2018-03-11T19:44:22.664Z,38.93
2018-03-11T19:46:51.788Z,37.00
2018-03-11T19:49:21.149Z,32.93
2018-03-11T19:51:51.038Z,32.43
2018-03-11T19:54:21.694Z,43.63
2018-03-11T19:56:50.980Z,44.70
2018-03-11T19:59:20.147Z,40.30
2018-03-11T20:01:49.200Z,36.70
2018-03-11T20:04:20.241Z,34.57
2018-03-11T20:06:51.979Z,33.57
2018-03-11T20:09:21.251Z,30.33
2018-03-11T20:11:50.351Z,31.07
2018-03-11T20:14:19.251Z,30.70
2018-03-11T20:16:48.393Z,32.50
2018-03-11T20:19:17.491Z,33.83
2018-03-11T20:21:47.301Z,36.17
2018-03-11T20:24:16.314Z,34.23
2018-03-11T20:26:46.125Z,33.80
2018-03-11T20:29:15.960Z,36.17
2018-03-11T20:31:44.811Z,37.90
2018-03-11T20:34:14.504Z,36.63
2018-03-11T20:36:43.553Z,36.90
2018-03-11T20:39:13.487Z,34.83
2018-03-11T20:41:42.501Z,35.07
2018-03-11T20:44:12.345Z,34.53
2018-03-11T20:46:42.050Z,35.67
2018-03-11T20:49:11.159Z,35.45
2018-03-11T20:51:40.873Z,35.60
2018-03-11T20:54:09.870Z,33.93
2018-03-11T20:56:38.740Z,35.03
2018-03-11T20:59:07.768Z,35.25
2018-03-11T21:01:36.785Z,35.55
2018-03-11T21:04:05.600Z,34.40
2018-03-11T21:06:35.330Z,34.50
2018-03-11T21:09:04.432Z,34.03
2018-03-11T21:11:33.331Z,33.70
2018-03-11T21:14:02.290Z,34.77
2018-03-11T21:16:31.821Z,40.33
2018-03-11T21:19:00.680Z,44.83
2018-03-11T21:21:30.203Z,50.35
2018-03-11T21:23:59.691Z,66.40
2018-03-11T21:26:28.652Z,65.07
2018-03-11T21:28:57.735Z,63.03
2018-03-11T21:31:26.583Z,50.77
2018-03-11T21:33:56.186Z,48.57
2018-03-11T21:36:25.196Z,49.10
2018-03-11T21:38:54.178Z,48.80
2018-03-11T21:41:23.324Z,49.10
2018-03-11T21:43:52.511Z,52.25
2018-03-11T21:46:21.500Z,56.30
2018-03-11T21:48:51.423Z,58.65
2018-03-11T21:51:20.194Z,58.57
2018-03-11T21:53:50.135Z,60.20
2018-03-11T21:56:18.974Z,59.45
2018-03-11T21:58:47.938Z,60.72
2018-03-11T22:01:17.790Z,58.17
2018-03-11T22:03:47.426Z,56.95
2018-03-11T22:06:16.363Z,141.07
2018-03-11T22:08:45.234Z,67.95
2018-03-11T22:11:14.864Z,68.93
2018-03-11T22:13:44.695Z,55.72
2018-03-11T22:16:13.588Z,53.35
2018-03-11T22:18:42.432Z,53.58
2018-03-11T22:21:11.242Z,54.15
2018-03-11T22:23:40.101Z,51.67
2018-03-11T22:26:08.973Z,53.50
2018-03-11T22:28:37.851Z,56.63
2018-03-11T22:31:07.456Z,55.08
2018-03-11T22:33:36.204Z,62.00
2018-03-11T22:36:04.958Z,59.35
2018-03-11T22:38:33.788Z,62.38
2018-03-11T22:41:03.435Z,58.40
2018-03-11T22:43:32.456Z,58.53
2018-03-11T22:46:01.529Z,55.55
2018-03-11T22:48:31.008Z,53.05
2018-03-11T22:51:00.037Z,55.42
2018-03-11T22:53:28.985Z,56.00
2018-03-11T22:55:57.921Z,57.85
2018-03-11T22:58:27.873Z,67.07
2018-03-11T23:00:56.860Z,65.90
2018-03-11T23:03:25.838Z,63.85
2018-03-11T23:05:54.897Z,64.32
2018-03-11T23:08:25.608Z,69.95
2018-03-11T23:10:54.823Z,71.70
2018-03-11T23:13:24.477Z,71.28
2018-03-11T23:15:54.170Z,82.62
2018-03-11T23:18:22.984Z,81.07
2018-03-11T23:20:51.833Z,81.50
2018-03-11T23:23:20.730Z,86.47
2018-03-11T23:25:49.724Z,83.65
2018-03-11T23:28:18.580Z,78.87
2018-03-11T23:30:48.137Z,63.38
2018-03-11T23:33:17.798Z,58.63
2018-03-11T23:35:47.498Z,47.17
2018-03-11T23:38:16.447Z,45.75
2018-03-11T23:40:45.328Z,43.65
2018-03-11T23:43:14.461Z,43.63
2018-03-11T23:45:43.256Z,42.50
2018-03-11T23:48:12.036Z,42.42
2018-03-11T23:50:41.167Z,43.25
2018-03-11T23:53:09.919Z,43.22
2018-03-11T23:55:39.561Z,43.35
2018-03-11T23:58:08.416Z,44.53
